Time;durP1;ratioP1;P1;durP2;ratioP2;P2;SDS_P1;SDS_P2;PMS_P1;PMS_P2;Temp;Humidity;BMP_temperature;BMP_pressure;BME280_temperature;BME280_humidity;BME280_pressure;Samples;Min_cycle;Max_cycle;Signal;HPM_P1;HPM_P2
2023/12/17 00:02:09;;;;;;;92.73;41.30;;;;;;;;;;5031212;28;20211;-57
2023/12/17 00:04:36;;;;;;;47.87;24.23;;;;;;;;;;5030892;28;20208;-59
2023/12/17 00:07:04;;;;;;;18.50;9.63;;;;;;;;;;5035315;28;20200;-59
2023/12/17 00:09:32;;;;;;;16.90;9.67;;;;;;;;;;5049637;28;20207;-60
2023/12/17 00:11:59;;;;;;;9.83;6.10;;;;;;;;;;5049828;28;20203;-59
2023/12/17 00:14:26;;;;;;;19.80;8.43;;;;;;;;;;5034714;28;20280;-57
2023/12/17 00:16:53;;;;;;;46.87;20.87;;;;;;;;;;5046536;28;20227;-60
2023/12/17 00:19:20;;;;;;;30.20;13.57;;;;;;;;;;5042380;28;20211;-60
2023/12/17 00:21:47;;;;;;;53.23;20.93;;;;;;;;;;5030154;28;20251;-59
2023/12/17 00:24:14;;;;;;;70.10;26.63;;;;;;;;;;5038912;28;20207;-59
2023/12/17 00:26:42;;;;;;;80.77;34.37;;;;;;;;;;5049243;28;20200;-58
2023/12/17 00:29:09;;;;;;;56.57;21.97;;;;;;;;;;5039375;28;20216;-58
2023/12/17 00:31:36;;;;;;;24.90;11.30;;;;;;;;;;5047384;28;20674;-57
2023/12/17 00:34:04;;;;;;;64.93;25.43;;;;;;;;;;5044160;28;20228;-58
2023/12/17 00:36:31;;;;;;;55.10;22.50;;;;;;;;;;5029788;28;20286;-58
2023/12/17 00:38:58;;;;;;;43.97;17.50;;;;;;;;;;5042406;28;20207;-58
2023/12/17 00:41:25;;;;;;;43.03;18.70;;;;;;;;;;5043796;28;20214;-58
2023/12/17 00:43:53;;;;;;;65.13;26.10;;;;;;;;;;5042118;28;20645;-60
2023/12/17 00:46:20;;;;;;;70.23;27.20;;;;;;;;;;5048986;28;20211;-59
2023/12/17 00:48:47;;;;;;;15.13;9.30;;;;;;;;;;5048965;28;20219;-58
2023/12/17 00:51:14;;;;;;;67.37;24.70;;;;;;;;;;5037332;28;20667;-58
2023/12/17 00:53:41;;;;;;;12.90;7.63;;;;;;;;;;5036428;28;20235;-58
2023/12/17 00:56:09;;;;;;;15.10;7.43;;;;;;;;;;5047570;28;20219;-57
2023/12/17 00:58:36;;;;;;;15.87;7.77;;;;;;;;;;5042681;28;20591;-57
2023/12/17 01:01:04;;;;;;;13.63;7.47;;;;;;;;;;5028918;28;20204;-58
2023/12/17 01:03:31;;;;;;;13.87;7.70;;;;;;;;;;5029405;28;20196;-58
2023/12/17 01:05:58;;;;;;;11.33;7.30;;;;;;;;;;5029028;28;20235;-58
2023/12/17 01:08:25;;;;;;;62.87;26.70;;;;;;;;;;5029115;28;20200;-58
2023/12/17 01:10:52;;;;;;;31.10;13.00;;;;;;;;;;5038801;28;20218;-58
2023/12/17 01:13:19;;;;;;;13.30;7.17;;;;;;;;;;5047508;28;20199;-58
2023/12/17 01:15:46;;;;;;;16.83;7.93;;;;;;;;;;5039396;28;20204;-57
2023/12/17 01:18:15;;;;;;;111.97;37.97;;;;;;;;;;5028866;28;20240;-57
2023/12/17 01:20:42;;;;;;;106.23;36.57;;;;;;;;;;5041036;28;20210;-57
2023/12/17 01:23:09;;;;;;;68.87;26.13;;;;;;;;;;5048368;28;20211;-58
2023/12/17 01:25:36;;;;;;;36.47;16.57;;;;;;;;;;5038760;28;20200;-58
2023/12/17 01:28:03;;;;;;;19.47;9.67;;;;;;;;;;5045709;28;20218;-58
2023/12/17 01:30:30;;;;;;;34.87;12.50;;;;;;;;;;5031927;28;20611;-58
2023/12/17 01:32:57;;;;;;;22.47;12.27;;;;;;;;;;5028809;28;20216;-58
2023/12/17 01:35:25;;;;;;;38.63;15.53;;;;;;;;;;5042560;28;20227;-58
2023/12/17 01:37:52;;;;;;;24.50;11.97;;;;;;;;;;5048459;28;20230;-58
2023/12/17 01:40:19;;;;;;;31.73;15.00;;;;;;;;;;5033819;28;20565;-60
2023/12/17 01:42:46;;;;;;;32.83;12.97;;;;;;;;;;5028686;28;20204;-57
2023/12/17 01:45:13;;;;;;;22.50;11.77;;;;;;;;;;5029093;28;20216;-58
2023/12/17 01:47:40;;;;;;;17.83;10.87;;;;;;;;;;5038971;28;20214;-57
2023/12/17 01:50:08;;;;;;;29.00;13.40;;;;;;;;;;5035353;28;20303;-58
2023/12/17 01:52:37;;;;;;;25.10;11.13;;;;;;;;;;5028653;28;20220;-58
2023/12/17 01:55:04;;;;;;;28.20;11.10;;;;;;;;;;5028805;28;20216;-60
2023/12/17 01:57:32;;;;;;;34.63;16.40;;;;;;;;;;5028281;28;20258;-57
2023/12/17 01:59:59;;;;;;;35.90;16.40;;;;;;;;;;5031381;28;20205;-58
2023/12/17 02:02:26;;;;;;;18.33;10.80;;;;;;;;;;5046605;28;20207;-58
2023/12/17 02:04:54;;;;;;;35.67;15.33;;;;;;;;;;5047477;28;20204;-58
2023/12/17 02:07:21;;;;;;;26.27;12.43;;;;;;;;;;5047762;28;20247;-60
2023/12/17 02:09:49;;;;;;;23.60;12.33;;;;;;;;;;5048129;28;20214;-58
2023/12/17 02:12:24;;;;;;;18.53;10.33;;;;;;;;;;5046380;28;20204;-59
2023/12/17 02:14:51;;;;;;;16.27;9.63;;;;;;;;;;5047553;28;20431;-58
2023/12/17 02:17:19;;;;;;;23.37;9.57;;;;;;;;;;5047581;28;20247;-58
2023/12/17 02:19:46;;;;;;;18.67;10.07;;;;;;;;;;5033674;28;20211;-58
2023/12/17 02:22:13;;;;;;;60.93;20.70;;;;;;;;;;5046921;28;20207;-58
2023/12/17 02:24:41;;;;;;;20.80;11.83;;;;;;;;;;5027831;28;20235;-58
2023/12/17 02:27:08;;;;;;;48.43;20.63;;;;;;;;;;5027843;28;20216;-58
2023/12/17 02:29:38;;;;;;;35.97;16.27;;;;;;;;;;5044132;28;20212;-59
2023/12/17 02:32:05;;;;;;;21.90;10.97;;;;;;;;;;5047993;28;20215;-58
2023/12/17 02:34:32;;;;;;;17.97;11.07;;;;;;;;;;5040628;28;20228;-58
2023/12/17 02:36:59;;;;;;;44.07;17.87;;;;;;;;;;5033548;28;20275;-58
2023/12/17 02:39:28;;;;;;;32.67;13.73;;;;;;;;;;5047947;28;20234;-58
2023/12/17 02:41:57;;;;;;;24.63;12.33;;;;;;;;;;5047213;28;20199;-57
2023/12/17 02:44:24;;;;;;;17.77;9.00;;;;;;;;;;5046624;28;20200;-58
2023/12/17 02:46:53;;;;;;;28.90;14.03;;;;;;;;;;5047244;28;20200;-59
2023/12/17 02:49:20;;;;;;;21.27;11.67;;;;;;;;;;5047545;28;20204;-59
2023/12/17 02:51:47;;;;;;;23.27;10.67;;;;;;;;;;5046837;28;20218;-58
2023/12/17 02:54:14;;;;;;;14.20;9.20;;;;;;;;;;5047151;28;20238;-59
2023/12/17 02:56:42;;;;;;;29.83;13.13;;;;;;;;;;5047105;28;20200;-58
2023/12/17 02:59:11;;;;;;;32.30;14.00;;;;;;;;;;5041709;28;20216;-58
2023/12/17 03:01:38;;;;;;;41.90;17.30;;;;;;;;;;5043275;28;20207;-58
2023/12/17 03:04:05;;;;;;;21.53;10.00;;;;;;;;;;5046817;28;20618;-58
2023/12/17 03:06:32;;;;;;;23.23;12.23;;;;;;;;;;5047253;28;20238;-58
2023/12/17 03:08:59;;;;;;;33.07;17.23;;;;;;;;;;5042663;28;20205;-58
2023/12/17 03:11:26;;;;;;;37.23;16.40;;;;;;;;;;5027184;28;20685;-58
2023/12/17 03:13:53;;;;;;;25.17;11.70;;;;;;;;;;5027559;28;20217;-58
2023/12/17 03:16:22;;;;;;;31.13;12.50;;;;;;;;;;5041087;28;20228;-58
2023/12/17 03:18:49;;;;;;;21.50;10.73;;;;;;;;;;5038942;28;20236;-58
2023/12/17 03:21:16;;;;;;;30.93;14.27;;;;;;;;;;5034198;28;20846;-58
2023/12/17 03:23:43;;;;;;;24.90;11.20;;;;;;;;;;5051647;28;20201;-58
2023/12/17 03:26:10;;;;;;;22.20;11.17;;;;;;;;;;5053293;28;20197;-58
2023/12/17 03:28:38;;;;;;;17.83;9.57;;;;;;;;;;5039680;28;20221;-58
2023/12/17 03:31:05;;;;;;;17.63;10.83;;;;;;;;;;5036464;28;20211;-58
2023/12/17 03:33:33;;;;;;;33.90;13.13;;;;;;;;;;5053960;28;20207;-58
2023/12/17 03:36:00;;;;;;;16.97;8.80;;;;;;;;;;5034689;28;20224;-58
2023/12/17 03:38:27;;;;;;;19.90;9.43;;;;;;;;;;5046409;28;20690;-59
2023/12/17 03:40:54;;;;;;;22.73;10.10;;;;;;;;;;5051176;28;20347;-58
2023/12/17 03:43:21;;;;;;;26.67;12.90;;;;;;;;;;5036957;28;20433;-58
2023/12/17 03:45:48;;;;;;;26.17;10.40;;;;;;;;;;5033450;28;20693;-58
2023/12/17 03:48:15;;;;;;;18.30;10.23;;;;;;;;;;5034123;28;20249;-58
2023/12/17 03:50:44;;;;;;;25.07;11.33;;;;;;;;;;5033886;28;20526;-58
2023/12/17 03:53:11;;;;;;;19.93;9.83;;;;;;;;;;5033512;28;20205;-58
2023/12/17 03:55:38;;;;;;;23.10;10.67;;;;;;;;;;5053145;28;20330;-59
2023/12/17 03:58:05;;;;;;;18.63;9.63;;;;;;;;;;5054037;28;20208;-58
2023/12/17 04:00:32;;;;;;;26.97;12.00;;;;;;;;;;5051058;28;20209;-58
2023/12/17 04:02:59;;;;;;;22.33;9.77;;;;;;;;;;5048873;28;20195;-58
2023/12/17 04:05:26;;;;;;;17.70;8.57;;;;;;;;;;5041280;28;20648;-58
2023/12/17 04:07:54;;;;;;;13.07;8.60;;;;;;;;;;5044819;28;20205;-58
2023/12/17 04:10:21;;;;;;;24.07;12.63;;;;;;;;;;5052900;28;20211;-57
2023/12/17 04:12:48;;;;;;;24.00;11.67;;;;;;;;;;5045869;28;20208;-59
2023/12/17 04:15:16;;;;;;;15.77;8.97;;;;;;;;;;5053631;28;20227;-59
2023/12/17 04:17:43;;;;;;;16.83;9.37;;;;;;;;;;5045630;28;20263;-58
2023/12/17 04:20:10;;;;;;;33.00;13.10;;;;;;;;;;5033319;28;20210;-58
2023/12/17 04:22:37;;;;;;;26.87;13.87;;;;;;;;;;5041335;28;20216;-58
2023/12/17 04:25:08;;;;;;;59.60;22.50;;;;;;;;;;5034586;28;20204;-58
2023/12/17 04:27:35;;;;;;;73.53;28.07;;;;;;;;;;5039889;28;20287;-58
2023/12/17 04:30:02;;;;;;;29.00;14.40;;;;;;;;;;5040830;28;20219;-58
2023/12/17 04:32:29;;;;;;;30.03;13.30;;;;;;;;;;5045701;28;20200;-58
2023/12/17 04:34:56;;;;;;;40.17;15.83;;;;;;;;;;5030978;28;20224;-58
2023/12/17 04:37:23;;;;;;;108.20;43.57;;;;;;;;;;5048228;28;20211;-58
2023/12/17 04:39:50;;;;;;;24.47;12.20;;;;;;;;;;5048763;28;20643;-58
2023/12/17 04:42:19;;;;;;;39.57;17.37;;;;;;;;;;5034541;28;20205;-58
2023/12/17 04:44:46;;;;;;;23.50;11.23;;;;;;;;;;5042050;28;20204;-58
2023/12/17 04:47:13;;;;;;;19.20;10.30;;;;;;;;;;5047755;28;20214;-58
2023/12/17 04:49:41;;;;;;;41.57;17.30;;;;;;;;;;5049169;28;20574;-58
2023/12/17 04:52:08;;;;;;;29.07;12.60;;;;;;;;;;5030733;28;20213;-58
2023/12/17 04:54:35;;;;;;;28.13;12.40;;;;;;;;;;5035151;28;20253;-59
2023/12/17 04:57:03;;;;;;;26.27;13.57;;;;;;;;;;5049168;28;20732;-58
2023/12/17 04:59:31;;;;;;;41.53;15.00;;;;;;;;;;5031581;28;20208;-58
2023/12/17 05:01:58;;;;;;;22.13;10.40;;;;;;;;;;5043893;28;20216;-58
2023/12/17 05:04:34;;;;;;;15.07;9.90;;;;;;;;;;5048508;28;20208;-58
2023/12/17 05:07:01;;;;;;;20.97;12.33;;;;;;;;;;5037710;28;20589;-58
2023/12/17 05:09:28;;;;;;;37.27;17.23;;;;;;;;;;5034377;28;20213;-58
2023/12/17 05:11:55;;;;;;;32.83;15.03;;;;;;;;;;5036577;28;20204;-58
2023/12/17 05:14:22;;;;;;;27.33;13.70;;;;;;;;;;5049280;28;20758;-58
2023/12/17 05:16:50;;;;;;;27.73;12.53;;;;;;;;;;5045924;28;20223;-58
2023/12/17 05:19:17;;;;;;;52.53;19.90;;;;;;;;;;5043005;28;20210;-58
2023/12/17 05:21:44;;;;;;;60.20;24.23;;;;;;;;;;5029390;28;20328;-58
2023/12/17 05:24:11;;;;;;;42.67;19.07;;;;;;;;;;5030851;28;20209;-58
2023/12/17 05:26:39;;;;;;;59.67;21.23;;;;;;;;;;5042751;28;20249;-58
2023/12/17 05:29:06;;;;;;;29.47;12.57;;;;;;;;;;5047008;28;20215;-58
2023/12/17 05:31:33;;;;;;;26.83;13.47;;;;;;;;;;5042303;28;20207;-58
2023/12/17 05:34:01;;;;;;;13.03;8.47;;;;;;;;;;5032524;28;20213;-58
2023/12/17 05:36:28;;;;;;;59.47;19.13;;;;;;;;;;5039921;28;20219;-58
2023/12/17 05:38:55;;;;;;;28.53;12.53;;;;;;;;;;5045193;28;20627;-58
2023/12/17 05:41:22;;;;;;;22.07;10.30;;;;;;;;;;5028905;28;20791;-58
2023/12/17 05:43:49;;;;;;;28.00;12.37;;;;;;;;;;5031949;28;20199;-58
2023/12/17 05:46:16;;;;;;;19.03;10.43;;;;;;;;;;5035939;28;20196;-58
2023/12/17 05:48:43;;;;;;;23.17;11.70;;;;;;;;;;5030451;28;20223;-58
2023/12/17 05:51:11;;;;;;;33.30;14.20;;;;;;;;;;5047130;28;20205;-58
2023/12/17 05:53:38;;;;;;;23.40;12.33;;;;;;;;;;5048191;28;20213;-58
2023/12/17 05:56:06;;;;;;;20.93;10.37;;;;;;;;;;5047189;28;20685;-58
2023/12/17 05:58:33;;;;;;;21.17;10.60;;;;;;;;;;5029160;28;20201;-58
2023/12/17 06:01:00;;;;;;;29.30;14.47;;;;;;;;;;5047562;28;20212;-58
2023/12/17 06:03:27;;;;;;;43.40;18.53;;;;;;;;;;5047483;28;20207;-58
2023/12/17 06:05:54;;;;;;;24.60;11.17;;;;;;;;;;5047262;28;20644;-58
2023/12/17 06:08:23;;;;;;;18.63;10.33;;;;;;;;;;5046354;28;20199;-58
2023/12/17 06:10:50;;;;;;;15.80;9.20;;;;;;;;;;5034125;28;20220;-58
2023/12/17 06:13:17;;;;;;;36.27;14.70;;;;;;;;;;5034222;28;20220;-58
2023/12/17 06:15:44;;;;;;;48.57;18.77;;;;;;;;;;5047511;28;20221;-58
2023/12/17 06:18:13;;;;;;;26.77;11.30;;;;;;;;;;5046007;28;20228;-58
2023/12/17 06:20:40;;;;;;;23.80;10.70;;;;;;;;;;5043946;28;20669;-58
2023/12/17 06:23:10;;;;;;;13.63;8.90;;;;;;;;;;5030364;28;20216;-58
2023/12/17 06:25:39;;;;;;;42.00;15.33;;;;;;;;;;5044536;28;20210;-58
2023/12/17 06:28:06;;;;;;;22.73;10.73;;;;;;;;;;5033328;28;20205;-58
2023/12/17 06:30:33;;;;;;;16.50;9.07;;;;;;;;;;5034882;28;20212;-58
2023/12/17 06:33:00;;;;;;;18.10;9.03;;;;;;;;;;5039903;28;20231;-58
2023/12/17 06:35:27;;;;;;;23.23;11.20;;;;;;;;;;5035889;28;20236;-58
2023/12/17 06:37:54;;;;;;;15.67;9.17;;;;;;;;;;5027984;28;20204;-58
2023/12/17 06:40:21;;;;;;;24.00;10.63;;;;;;;;;;5040935;28;20218;-58
2023/12/17 06:42:50;;;;;;;25.63;11.87;;;;;;;;;;5027487;28;20698;-58
2023/12/17 06:45:17;;;;;;;14.13;8.40;;;;;;;;;;5030774;28;20254;-58
2023/12/17 06:47:45;;;;;;;27.00;10.70;;;;;;;;;;5046506;28;20200;-58
2023/12/17 06:50:13;;;;;;;18.30;10.03;;;;;;;;;;5047745;28;20251;-58
2023/12/17 06:52:40;;;;;;;20.93;9.53;;;;;;;;;;5044411;28;20298;-58
2023/12/17 06:55:07;;;;;;;37.73;14.53;;;;;;;;;;5030080;28;20215;-58
2023/12/17 06:57:34;;;;;;;26.17;10.83;;;;;;;;;;5042239;28;20209;-58
2023/12/17 07:00:02;;;;;;;35.30;12.93;;;;;;;;;;5031908;28;20672;-58
2023/12/17 07:02:28;;;;;;;25.03;11.57;;;;;;;;;;5030395;28;20712;-58
2023/12/17 07:04:55;;;;;;;105.40;30.47;;;;;;;;;;5034894;28;20201;-58
2023/12/17 07:07:24;;;;;;;34.93;14.80;;;;;;;;;;5034191;28;20228;-57
2023/12/17 07:09:53;;;;;;;39.07;14.97;;;;;;;;;;5039630;28;20228;-58
2023/12/17 07:12:20;;;;;;;55.17;21.20;;;;;;;;;;5042410;28;20203;-57
2023/12/17 07:14:47;;;;;;;66.73;22.00;;;;;;;;;;5047304;28;20203;-58
2023/12/17 07:17:15;;;;;;;44.13;16.10;;;;;;;;;;5034269;28;20818;-58
2023/12/17 07:19:42;;;;;;;88.33;30.87;;;;;;;;;;5046532;28;20215;-58
2023/12/17 07:22:09;;;;;;;84.37;31.27;;;;;;;;;;5027462;28;20207;-58
2023/12/17 07:24:36;;;;;;;85.87;34.10;;;;;;;;;;5041838;28;20209;-58
2023/12/17 07:27:03;;;;;;;45.43;17.53;;;;;;;;;;5039756;28;20220;-57
2023/12/17 07:29:30;;;;;;;56.37;24.73;;;;;;;;;;5045285;28;20201;-58
2023/12/17 07:31:57;;;;;;;67.07;26.13;;;;;;;;;;5042916;28;20207;-58
2023/12/17 07:34:26;;;;;;;34.60;14.47;;;;;;;;;;5040283;28;20204;-58
2023/12/17 07:36:53;;;;;;;44.57;22.63;;;;;;;;;;5032989;28;20232;-58
2023/12/17 07:39:20;;;;;;;34.93;13.10;;;;;;;;;;5035267;28;20578;-58
2023/12/17 07:41:47;;;;;;;28.97;12.43;;;;;;;;;;5045835;28;20207;-58
2023/12/17 07:44:14;;;;;;;31.13;12.70;;;;;;;;;;5035311;28;20213;-58
2023/12/17 07:46:41;;;;;;;20.87;10.93;;;;;;;;;;5043434;28;20214;-58
2023/12/17 07:49:08;;;;;;;24.40;9.73;;;;;;;;;;5030885;28;20584;-58
2023/12/17 07:51:38;;;;;;;46.57;18.30;;;;;;;;;;5039487;28;20204;-58
2023/12/17 07:54:05;;;;;;;39.53;17.30;;;;;;;;;;5046144;28;20686;-58
2023/12/17 07:56:33;;;;;;;37.20;14.03;;;;;;;;;;5046813;28;20324;-58
2023/12/17 07:59:00;;;;;;;22.03;10.37;;;;;;;;;;5037660;28;20239;-58
2023/12/17 08:01:30;;;;;;;25.27;11.43;;;;;;;;;;5039308;28;20207;-58
2023/12/17 08:03:58;;;;;;;25.47;10.27;;;;;;;;;;5030104;28;20212;-59
2023/12/17 08:06:25;;;;;;;28.10;11.27;;;;;;;;;;5036826;28;20203;-58
2023/12/17 08:08:53;;;;;;;39.60;15.10;;;;;;;;;;5041863;28;20214;-58
2023/12/17 08:11:20;;;;;;;30.33;12.00;;;;;;;;;;5047993;28;20581;-59
2023/12/17 08:13:48;;;;;;;22.20;9.63;;;;;;;;;;5033450;28;20299;-58
2023/12/17 08:16:15;;;;;;;22.77;10.20;;;;;;;;;;5030151;28;20243;-59
2023/12/17 08:18:42;;;;;;;27.17;11.87;;;;;;;;;;5030353;28;20241;-58
2023/12/17 08:21:09;;;;;;;28.57;11.37;;;;;;;;;;5039633;28;20197;-59
2023/12/17 08:23:36;;;;;;;22.90;10.47;;;;;;;;;;5045815;28;20208;-58
2023/12/17 08:26:05;;;;;;;36.13;13.53;;;;;;;;;;5050069;28;20211;-58
2023/12/17 08:28:32;;;;;;;24.07;10.10;;;;;;;;;;5039378;28;20233;-58
2023/12/17 08:31:00;;;;;;;27.00;11.10;;;;;;;;;;5030135;28;20211;-59
2023/12/17 08:33:27;;;;;;;19.93;8.30;;;;;;;;;;5030504;28;20211;-59
2023/12/17 08:35:54;;;;;;;17.47;7.83;;;;;;;;;;5030851;28;20234;-59
2023/12/17 08:38:21;;;;;;;13.83;7.03;;;;;;;;;;5029854;28;20219;-59
2023/12/17 08:40:48;;;;;;;12.83;6.53;;;;;;;;;;5049332;28;20212;-59
2023/12/17 08:43:17;;;;;;;18.23;5.97;;;;;;;;;;5050016;28;20445;-58
2023/12/17 08:45:44;;;;;;;12.93;5.73;;;;;;;;;;5034206;28;20200;-58
2023/12/17 08:48:11;;;;;;;9.77;5.30;;;;;;;;;;5029686;28;20208;-59
2023/12/17 08:50:38;;;;;;;11.40;5.00;;;;;;;;;;5028291;28;20216;-59
2023/12/17 08:53:05;;;;;;;12.03;6.27;;;;;;;;;;5030069;28;20212;-59
2023/12/17 08:55:32;;;;;;;16.83;7.30;;;;;;;;;;5034644;28;20206;-59
2023/12/17 08:57:59;;;;;;;12.93;6.90;;;;;;;;;;5029823;28;20215;-59
2023/12/17 09:00:28;;;;;;;13.33;6.33;;;;;;;;;;5035442;28;20235;-60
2023/12/17 09:02:55;;;;;;;13.77;6.17;;;;;;;;;;5045883;28;20770;-58
2023/12/17 09:05:22;;;;;;;14.60;6.23;;;;;;;;;;5041447;28;20579;-59
2023/12/17 09:07:50;;;;;;;17.37;6.83;;;;;;;;;;5048522;28;20212;-59
2023/12/17 09:10:19;;;;;;;10.40;5.90;;;;;;;;;;5044322;28;20211;-58
2023/12/17 09:12:46;;;;;;;12.60;7.20;;;;;;;;;;5042608;28;20770;-58
2023/12/17 09:15:13;;;;;;;14.47;6.53;;;;;;;;;;5034224;28;20210;-59
2023/12/17 09:17:42;;;;;;;17.53;7.60;;;;;;;;;;5038428;28;20243;-58
2023/12/17 09:20:09;;;;;;;16.77;6.13;;;;;;;;;;5040483;28;20219;-58
2023/12/17 09:22:36;;;;;;;18.17;6.20;;;;;;;;;;5036001;28;20215;-59
2023/12/17 09:25:03;;;;;;;11.43;6.23;;;;;;;;;;5039114;28;20739;-59
2023/12/17 09:27:30;;;;;;;15.57;7.37;;;;;;;;;;5040860;28;20204;-59
2023/12/17 09:29:57;;;;;;;9.30;5.17;;;;;;;;;;5037416;28;20214;-58
2023/12/17 09:32:26;;;;;;;10.20;5.80;;;;;;;;;;5037915;28;20207;-59
2023/12/17 09:34:54;;;;;;;9.40;5.53;;;;;;;;;;5048525;28;20208;-58
2023/12/17 09:37:21;;;;;;;10.30;5.87;;;;;;;;;;5031252;28;20742;-62
2023/12/17 09:39:48;;;;;;;11.93;5.83;;;;;;;;;;5037951;28;20249;-58
2023/12/17 09:42:18;;;;;;;10.50;5.80;;;;;;;;;;5040773;28;20216;-58
2023/12/17 09:44:45;;;;;;;14.30;6.73;;;;;;;;;;5046951;28;20585;-58
2023/12/17 09:47:12;;;;;;;9.33;5.43;;;;;;;;;;5043186;28;20235;-58
2023/12/17 09:49:39;;;;;;;9.00;5.47;;;;;;;;;;5031691;28;20203;-58
2023/12/17 09:52:08;;;;;;;15.63;7.60;;;;;;;;;;5042332;28;20666;-58
2023/12/17 09:54:36;;;;;;;17.70;7.27;;;;;;;;;;5038437;28;20201;-58
2023/12/17 09:57:03;;;;;;;11.73;6.50;;;;;;;;;;5029292;28;20229;-59
2023/12/17 09:59:30;;;;;;;16.50;8.40;;;;;;;;;;5030673;28;20597;-58
2023/12/17 10:01:57;;;;;;;12.43;6.80;;;;;;;;;;5038476;28;21035;-58
2023/12/17 10:04:25;;;;;;;15.77;7.20;;;;;;;;;;5044787;28;20215;-57
2023/12/17 10:06:52;;;;;;;19.70;8.03;;;;;;;;;;5038498;28;20267;-58
2023/12/17 10:09:20;;;;;;;13.13;7.07;;;;;;;;;;5042703;28;20207;-59
2023/12/17 10:11:48;;;;;;;16.80;7.47;;;;;;;;;;5036063;28;20204;-59
2023/12/17 10:14:22;;;;;;;18.20;8.53;;;;;;;;;;5039067;28;20525;-58
2023/12/17 10:16:50;;;;;;;17.00;7.77;;;;;;;;;;5045839;28;20226;-59
2023/12/17 10:19:18;;;;;;;13.57;6.80;;;;;;;;;;5047128;28;20794;-58
2023/12/17 10:21:45;;;;;;;38.37;15.13;;;;;;;;;;5039003;28;20692;-58
2023/12/17 10:24:12;;;;;;;15.27;7.73;;;;;;;;;;5045154;28;20200;-62
2023/12/17 10:26:47;;;;;;;26.73;9.67;;;;;;;;;;5038962;28;20214;-57
2023/12/17 10:29:14;;;;;;;17.70;8.40;;;;;;;;;;5028709;28;20211;-59
2023/12/17 10:31:42;;;;;;;17.40;8.00;;;;;;;;;;5037974;28;20635;-58
2023/12/17 10:34:15;;;;;;;20.43;8.90;;;;;;;;;;5044314;28;20206;-58
2023/12/17 10:36:42;;;;;;;17.03;8.67;;;;;;;;;;5045725;28;20720;-59
2023/12/17 10:39:10;;;;;;;15.23;8.57;;;;;;;;;;5040480;28;20208;-59
2023/12/17 10:41:38;;;;;;;25.50;9.20;;;;;;;;;;5035698;28;20204;-58
2023/12/17 10:44:07;;;;;;;17.00;8.53;;;;;;;;;;5030213;28;20205;-58
2023/12/17 10:46:34;;;;;;;17.20;8.47;;;;;;;;;;5037635;28;20265;-58
2023/12/17 10:49:01;;;;;;;19.87;8.83;;;;;;;;;;5041560;28;20210;-58
2023/12/17 10:51:29;;;;;;;17.93;8.70;;;;;;;;;;5043882;28;20598;-58
2023/12/17 10:53:56;;;;;;;20.83;9.33;;;;;;;;;;5046055;28;20239;-58
2023/12/17 10:56:24;;;;;;;18.57;8.33;;;;;;;;;;5047330;28;20215;-59
2023/12/17 10:58:51;;;;;;;20.83;9.27;;;;;;;;;;5044397;28;20208;-58
2023/12/17 11:01:20;;;;;;;24.77;10.53;;;;;;;;;;5044807;28;20234;-59
2023/12/17 11:03:47;;;;;;;29.60;12.23;;;;;;;;;;5045174;28;20215;-59
2023/12/17 11:06:15;;;;;;;28.27;11.63;;;;;;;;;;5042861;28;20214;-59
2023/12/17 11:08:42;;;;;;;25.20;10.33;;;;;;;;;;5041103;28;20601;-58
2023/12/17 11:11:09;;;;;;;27.53;12.10;;;;;;;;;;5046201;28;20231;-58
2023/12/17 11:13:36;;;;;;;27.93;12.33;;;;;;;;;;5035795;28;20207;-59
2023/12/17 11:19:01;;;;;;;34.40;12.50;;;;;;;;;;5089577;27;20294;-59
2023/12/17 11:21:29;;;;;;;25.07;11.27;;;;;;;;;;5083976;28;21009;-59
2023/12/17 11:23:56;;;;;;;29.23;11.83;;;;;;;;;;5083681;28;20212;-59
2023/12/17 11:26:24;;;;;;;20.37;10.20;;;;;;;;;;5082429;28;20279;-59
2023/12/17 11:28:52;;;;;;;22.30;10.70;;;;;;;;;;5081138;28;20260;-59
2023/12/17 11:31:19;;;;;;;19.53;9.63;;;;;;;;;;5079406;28;20206;-59
2023/12/17 11:33:46;;;;;;;19.40;9.40;;;;;;;;;;5082945;28;20209;-60
2023/12/17 11:36:15;;;;;;;19.63;9.43;;;;;;;;;;5082467;28;20209;-59
2023/12/17 11:38:42;;;;;;;17.37;8.87;;;;;;;;;;5083098;28;20598;-60
2023/12/17 11:41:09;;;;;;;13.80;8.17;;;;;;;;;;5082714;28;20589;-59
2023/12/17 11:43:36;;;;;;;17.50;8.03;;;;;;;;;;5083135;28;20245;-59
2023/12/17 11:46:03;;;;;;;12.73;7.13;;;;;;;;;;5090329;28;20198;-59
2023/12/17 11:48:31;;;;;;;13.50;7.10;;;;;;;;;;5082818;28;20202;-59
2023/12/17 11:50:58;;;;;;;14.37;6.30;;;;;;;;;;5082789;28;20296;-59
2023/12/17 11:53:27;;;;;;;11.23;6.53;;;;;;;;;;5083017;28;20209;-61
2023/12/17 11:55:56;;;;;;;10.50;6.27;;;;;;;;;;5082877;28;20583;-59
2023/12/17 11:58:24;;;;;;;12.03;6.67;;;;;;;;;;5071658;28;20430;-59
2023/12/17 12:01:00;;;;;;;12.40;6.93;;;;;;;;;;5081752;28;20212;-59
2023/12/17 12:03:27;;;;;;;18.27;7.97;;;;;;;;;;5081477;28;20202;-60
2023/12/17 12:05:58;;;;;;;16.40;8.57;;;;;;;;;;5088958;28;20216;-59
2023/12/17 12:08:25;;;;;;;17.97;9.03;;;;;;;;;;5083268;28;20237;-59
2023/12/17 12:10:53;;;;;;;15.40;7.23;;;;;;;;;;5081927;28;20217;-60
2023/12/17 12:13:20;;;;;;;12.30;7.17;;;;;;;;;;5082051;28;20576;-60
2023/12/17 12:21:21;;;;;;;10.17;6.17;;;;;;;;;;4905833;29;20504;-61
2023/12/17 12:23:52;;;;;;;8.43;5.50;;;;;;;;;;4919210;29;20216;-61
2023/12/17 12:26:21;;;;;;;14.33;6.67;;;;;;;;;;4911487;29;20294;-61
2023/12/17 12:28:55;;;;;;;18.10;7.67;;;;;;;;;;4916865;29;20212;-61
2023/12/17 12:31:22;;;;;;;11.37;6.17;;;;;;;;;;4907729;29;20209;-61
2023/12/17 12:33:53;;;;;;;11.43;6.30;;;;;;;;;;4900460;29;20308;-61
2023/12/17 12:36:20;;;;;;;11.27;6.20;;;;;;;;;;4906589;29;20585;-61
2023/12/17 12:38:47;;;;;;;11.27;5.60;;;;;;;;;;4902662;29;20231;-62
2023/12/17 12:41:14;;;;;;;9.77;5.40;;;;;;;;;;4911013;29;20670;-61
2023/12/17 12:43:42;;;;;;;7.80;5.90;;;;;;;;;;4910991;29;20295;-62
2023/12/17 12:46:09;;;;;;;9.27;5.43;;;;;;;;;;4910866;29;20259;-61
2023/12/17 12:48:39;;;;;;;12.80;6.77;;;;;;;;;;4905579;29;20211;-62
2023/12/17 12:51:06;;;;;;;11.70;6.17;;;;;;;;;;4910151;29;20675;-60
2023/12/17 12:53:33;;;;;;;15.27;6.83;;;;;;;;;;4908993;29;20223;-61
2023/12/17 12:56:00;;;;;;;9.77;5.87;;;;;;;;;;4908752;29;20215;-61
2023/12/17 12:58:30;;;;;;;11.57;6.07;;;;;;;;;;4909555;29;20262;-61
2023/12/17 13:00:58;;;;;;;11.20;6.27;;;;;;;;;;4907554;29;20433;-60
2023/12/17 13:03:25;;;;;;;10.40;6.60;;;;;;;;;;4904052;29;20224;-60
2023/12/17 13:05:52;;;;;;;12.60;6.53;;;;;;;;;;4906147;29;20649;-60
2023/12/17 13:08:20;;;;;;;8.40;5.83;;;;;;;;;;4903858;29;20291;-59
2023/12/17 13:10:47;;;;;;;8.80;5.63;;;;;;;;;;4892631;29;20690;-60
2023/12/17 13:13:14;;;;;;;9.70;6.47;;;;;;;;;;4893566;29;20264;-59
2023/12/17 13:15:41;;;;;;;9.07;5.63;;;;;;;;;;4909536;29;20762;-58
2023/12/17 13:18:09;;;;;;;11.93;5.57;;;;;;;;;;4890815;29;20237;-59
2023/12/17 13:20:36;;;;;;;10.37;5.10;;;;;;;;;;4887291;29;20244;-59
2023/12/17 13:23:03;;;;;;;10.37;5.13;;;;;;;;;;4883040;29;20247;-59
2023/12/17 13:25:30;;;;;;;9.73;5.40;;;;;;;;;;4890457;29;20275;-60
2023/12/17 13:27:57;;;;;;;9.23;5.33;;;;;;;;;;4889849;29;20217;-60
2023/12/17 13:30:25;;;;;;;9.20;5.63;;;;;;;;;;4890011;29;20214;-59
2023/12/17 13:32:52;;;;;;;10.03;5.73;;;;;;;;;;4889737;29;20227;-59
2023/12/17 13:35:21;;;;;;;10.93;6.77;;;;;;;;;;4890605;29;20350;-59
2023/12/17 13:37:48;;;;;;;11.23;6.43;;;;;;;;;;4875679;29;20727;-59
2023/12/17 13:40:16;;;;;;;11.53;5.73;;;;;;;;;;4871712;29;20226;-59
2023/12/17 13:42:44;;;;;;;10.50;5.47;;;;;;;;;;4879058;29;20218;-59
2023/12/17 13:45:11;;;;;;;8.37;5.83;;;;;;;;;;4886855;29;20218;-60
2023/12/17 13:47:38;;;;;;;13.97;6.33;;;;;;;;;;4889826;29;20364;-60
2023/12/17 13:50:06;;;;;;;10.30;6.40;;;;;;;;;;4890246;29;20209;-59
2023/12/17 13:52:35;;;;;;;14.50;7.70;;;;;;;;;;4889787;29;20219;-60
2023/12/17 13:55:05;;;;;;;14.17;8.10;;;;;;;;;;4889341;29;20216;-60
2023/12/17 13:57:32;;;;;;;12.33;7.23;;;;;;;;;;4883622;29;20829;-59
2023/12/17 13:59:59;;;;;;;12.30;6.97;;;;;;;;;;4870997;29;20537;-59
2023/12/17 14:02:28;;;;;;;11.47;6.93;;;;;;;;;;4869895;29;20238;-60
2023/12/17 14:04:55;;;;;;;15.80;8.83;;;;;;;;;;4888129;29;20694;-60
2023/12/17 14:07:22;;;;;;;11.50;7.40;;;;;;;;;;4885426;29;20213;-60
2023/12/17 14:09:51;;;;;;;11.83;7.37;;;;;;;;;;4888384;29;20720;-59
2023/12/17 14:12:18;;;;;;;14.60;6.97;;;;;;;;;;4887210;29;20212;-59
2023/12/17 14:14:46;;;;;;;15.33;8.47;;;;;;;;;;4873481;29;20306;-59
2023/12/17 14:17:13;;;;;;;10.97;7.13;;;;;;;;;;4871809;29;20380;-59
2023/12/17 14:19:40;;;;;;;14.90;8.90;;;;;;;;;;4883101;29;20233;-60
2023/12/17 14:22:07;;;;;;;12.27;8.00;;;;;;;;;;4888660;29;20950;-60
2023/12/17 14:24:34;;;;;;;9.20;6.77;;;;;;;;;;4884623;29;20212;-60
2023/12/17 14:27:03;;;;;;;9.60;6.97;;;;;;;;;;4886120;29;20212;-61
2023/12/17 14:29:30;;;;;;;13.00;7.67;;;;;;;;;;4889194;29;20284;-60
2023/12/17 14:32:02;;;;;;;12.20;7.17;;;;;;;;;;4889931;29;20213;-59
2023/12/17 14:34:30;;;;;;;14.73;7.57;;;;;;;;;;4889549;29;20942;-60